sensor_id;sensor_type;location;lat;lon;timestamp;P1;durP1;ratioP1;P2;durP2;ratioP2
23394;SDS011;11870;53.084;18.206;2023-05-07T00:00:58;32.60;;;15.20;;
23394;SDS011;11870;53.084;18.206;2023-05-07T00:03:25;65.80;;;18.65;;
23394;SDS011;11870;53.084;18.206;2023-05-07T00:05:51;29.30;;;14.95;;
23394;SDS011;11870;53.084;18.206;2023-05-07T00:08:18;71.32;;;17.48;;
23394;SDS011;11870;53.084;18.206;2023-05-07T00:10:45;50.72;;;18.92;;
23394;SDS011;11870;53.084;18.206;2023-05-07T00:13:12;39.85;;;17.95;;
23394;SDS011;11870;53.084;18.206;2023-05-07T00:15:38;94.53;;;21.98;;
23394;SDS011;11870;53.084;18.206;2023-05-07T00:18:04;86.72;;;23.63;;
23394;SDS011;11870;53.084;18.206;2023-05-07T00:20:30;49.30;;;22.02;;
23394;SDS011;11870;53.084;18.206;2023-05-07T00:22:57;171.80;;;31.98;;
23394;SDS011;11870;53.084;18.206;2023-05-07T00:25:23;63.90;;;22.63;;
23394;SDS011;11870;53.084;18.206;2023-05-07T00:27:50;116.38;;;26.50;;
23394;SDS011;11870;53.084;18.206;2023-05-07T00:30:16;116.22;;;30.55;;
23394;SDS011;11870;53.084;18.206;2023-05-07T00:32:42;96.15;;;25.45;;
23394;SDS011;11870;53.084;18.206;2023-05-07T00:35:10;78.07;;;25.85;;
23394;SDS011;11870;53.084;18.206;2023-05-07T00:37:37;139.65;;;29.30;;
23394;SDS011;11870;53.084;18.206;2023-05-07T00:40:03;115.53;;;27.77;;
23394;SDS011;11870;53.084;18.206;2023-05-07T00:42:32;122.32;;;29.70;;
23394;SDS011;11870;53.084;18.206;2023-05-07T00:44:58;135.05;;;31.48;;
23394;SDS011;11870;53.084;18.206;2023-05-07T00:47:25;56.80;;;24.33;;
23394;SDS011;11870;53.084;18.206;2023-05-07T00:49:50;65.38;;;26.63;;
23394;SDS011;11870;53.084;18.206;2023-05-07T00:52:17;94.82;;;30.17;;
23394;SDS011;11870;53.084;18.206;2023-05-07T00:54:46;58.63;;;25.42;;
23394;SDS011;11870;53.084;18.206;2023-05-07T00:57:12;56.97;;;25.92;;
23394;SDS011;11870;53.084;18.206;2023-05-07T00:59:38;150.77;;;36.90;;
23394;SDS011;11870;53.084;18.206;2023-05-07T01:02:06;205.48;;;43.40;;
23394;SDS011;11870;53.084;18.206;2023-05-07T01:04:32;115.57;;;39.50;;
23394;SDS011;11870;53.084;18.206;2023-05-07T01:06:58;67.63;;;30.73;;
23394;SDS011;11870;53.084;18.206;2023-05-07T01:09:25;217.50;;;45.88;;
23394;SDS011;11870;53.084;18.206;2023-05-07T01:11:52;133.15;;;42.03;;
23394;SDS011;11870;53.084;18.206;2023-05-07T01:14:19;160.82;;;44.38;;
23394;SDS011;11870;53.084;18.206;2023-05-07T01:16:46;136.50;;;40.92;;
23394;SDS011;11870;53.084;18.206;2023-05-07T01:19:13;180.43;;;45.63;;
23394;SDS011;11870;53.084;18.206;2023-05-07T01:21:44;238.50;;;67.95;;
23394;SDS011;11870;53.084;18.206;2023-05-07T01:24:12;241.40;;;63.42;;
23394;SDS011;11870;53.084;18.206;2023-05-07T01:26:39;158.27;;;42.72;;
23394;SDS011;11870;53.084;18.206;2023-05-07T01:29:05;128.70;;;40.42;;
23394;SDS011;11870;53.084;18.206;2023-05-07T01:31:32;194.57;;;49.17;;
23394;SDS011;11870;53.084;18.206;2023-05-07T01:34:00;242.82;;;59.17;;
23394;SDS011;11870;53.084;18.206;2023-05-07T01:36:27;301.38;;;63.78;;
23394;SDS011;11870;53.084;18.206;2023-05-07T01:38:55;183.27;;;47.70;;
23394;SDS011;11870;53.084;18.206;2023-05-07T01:41:23;243.40;;;57.20;;
23394;SDS011;11870;53.084;18.206;2023-05-07T01:43:49;249.65;;;55.70;;
23394;SDS011;11870;53.084;18.206;2023-05-07T01:46:17;252.68;;;57.85;;
23394;SDS011;11870;53.084;18.206;2023-05-07T01:48:45;174.40;;;47.20;;
23394;SDS011;11870;53.084;18.206;2023-05-07T01:51:11;191.00;;;47.60;;
23394;SDS011;11870;53.084;18.206;2023-05-07T01:53:38;213.05;;;49.50;;
23394;SDS011;11870;53.084;18.206;2023-05-07T01:56:06;196.70;;;49.38;;
23394;SDS011;11870;53.084;18.206;2023-05-07T01:58:32;193.40;;;49.70;;
23394;SDS011;11870;53.084;18.206;2023-05-07T02:00:59;298.17;;;59.65;;
23394;SDS011;11870;53.084;18.206;2023-05-07T02:03:25;253.27;;;53.95;;
23394;SDS011;11870;53.084;18.206;2023-05-07T02:05:51;320.70;;;61.25;;
23394;SDS011;11870;53.084;18.206;2023-05-07T02:08:17;337.98;;;58.75;;
23394;SDS011;11870;53.084;18.206;2023-05-07T02:10:43;222.45;;;49.10;;
23394;SDS011;11870;53.084;18.206;2023-05-07T02:13:09;151.65;;;43.90;;
23394;SDS011;11870;53.084;18.206;2023-05-07T02:15:36;228.68;;;49.15;;
23394;SDS011;11870;53.084;18.206;2023-05-07T02:18:03;379.70;;;61.38;;
23394;SDS011;11870;53.084;18.206;2023-05-07T02:20:31;399.83;;;65.35;;
23394;SDS011;11870;53.084;18.206;2023-05-07T02:22:58;259.30;;;55.63;;
23394;SDS011;11870;53.084;18.206;2023-05-07T02:25:24;240.80;;;51.38;;
23394;SDS011;11870;53.084;18.206;2023-05-07T02:27:50;328.67;;;57.22;;
23394;SDS011;11870;53.084;18.206;2023-05-07T02:30:16;129.45;;;39.75;;
23394;SDS011;11870;53.084;18.206;2023-05-07T02:32:43;157.68;;;38.88;;
23394;SDS011;11870;53.084;18.206;2023-05-07T02:35:09;116.38;;;33.35;;
23394;SDS011;11870;53.084;18.206;2023-05-07T02:37:35;187.82;;;38.83;;
23394;SDS011;11870;53.084;18.206;2023-05-07T02:40:02;128.68;;;35.83;;
23394;SDS011;11870;53.084;18.206;2023-05-07T02:42:29;204.25;;;40.72;;
23394;SDS011;11870;53.084;18.206;2023-05-07T02:44:55;235.15;;;40.67;;
23394;SDS011;11870;53.084;18.206;2023-05-07T02:47:21;116.97;;;33.70;;
23394;SDS011;11870;53.084;18.206;2023-05-07T02:49:48;106.13;;;29.10;;
23394;SDS011;11870;53.084;18.206;2023-05-07T02:52:14;94.32;;;29.50;;
23394;SDS011;11870;53.084;18.206;2023-05-07T02:54:40;91.72;;;31.02;;
23394;SDS011;11870;53.084;18.206;2023-05-07T02:57:06;121.30;;;33.70;;
23394;SDS011;11870;53.084;18.206;2023-05-07T02:59:32;127.55;;;31.17;;
23394;SDS011;11870;53.084;18.206;2023-05-07T03:01:58;153.40;;;41.92;;
23394;SDS011;11870;53.084;18.206;2023-05-07T03:04:24;154.85;;;37.58;;
23394;SDS011;11870;53.084;18.206;2023-05-07T03:06:51;152.70;;;38.28;;
23394;SDS011;11870;53.084;18.206;2023-05-07T03:09:17;187.18;;;42.30;;
23394;SDS011;11870;53.084;18.206;2023-05-07T03:11:43;114.05;;;33.25;;
23394;SDS011;11870;53.084;18.206;2023-05-07T03:14:09;177.88;;;41.65;;
23394;SDS011;11870;53.084;18.206;2023-05-07T03:16:36;174.48;;;40.63;;
23394;SDS011;11870;53.084;18.206;2023-05-07T03:19:02;177.40;;;40.65;;
23394;SDS011;11870;53.084;18.206;2023-05-07T03:21:28;188.30;;;40.75;;
23394;SDS011;11870;53.084;18.206;2023-05-07T03:23:56;107.43;;;31.35;;
23394;SDS011;11870;53.084;18.206;2023-05-07T03:26:22;122.50;;;36.47;;
23394;SDS011;11870;53.084;18.206;2023-05-07T03:28:48;109.07;;;30.80;;
23394;SDS011;11870;53.084;18.206;2023-05-07T03:31:14;69.85;;;26.42;;
23394;SDS011;11870;53.084;18.206;2023-05-07T03:33:54;83.82;;;28.77;;
23394;SDS011;11870;53.084;18.206;2023-05-07T03:36:21;137.43;;;30.35;;
23394;SDS011;11870;53.084;18.206;2023-05-07T03:38:47;119.47;;;30.67;;
23394;SDS011;11870;53.084;18.206;2023-05-07T03:41:14;272.83;;;38.03;;
23394;SDS011;11870;53.084;18.206;2023-05-07T03:43:40;88.60;;;27.88;;
23394;SDS011;11870;53.084;18.206;2023-05-07T03:46:07;231.90;;;36.42;;
23394;SDS011;11870;53.084;18.206;2023-05-07T03:48:33;158.85;;;31.65;;
23394;SDS011;11870;53.084;18.206;2023-05-07T03:50:59;92.05;;;26.30;;
23394;SDS011;11870;53.084;18.206;2023-05-07T03:53:25;382.08;;;43.25;;
23394;SDS011;11870;53.084;18.206;2023-05-07T03:55:51;523.60;;;52.08;;
23394;SDS011;11870;53.084;18.206;2023-05-07T03:58:18;324.58;;;41.70;;
23394;SDS011;11870;53.084;18.206;2023-05-07T04:00:44;390.90;;;41.70;;
23394;SDS011;11870;53.084;18.206;2023-05-07T04:03:11;768.88;;;63.78;;
23394;SDS011;11870;53.084;18.206;2023-05-07T04:05:37;878.72;;;75.47;;
23394;SDS011;11870;53.084;18.206;2023-05-07T04:08:03;685.35;;;59.88;;
23394;SDS011;11870;53.084;18.206;2023-05-07T04:10:30;945.78;;;75.05;;
23394;SDS011;11870;53.084;18.206;2023-05-07T04:12:57;816.47;;;68.88;;
23394;SDS011;11870;53.084;18.206;2023-05-07T04:15:23;590.05;;;52.92;;
23394;SDS011;11870;53.084;18.206;2023-05-07T04:17:50;1433.20;;;108.85;;
23394;SDS011;11870;53.084;18.206;2023-05-07T04:20:16;1218.93;;;93.32;;
23394;SDS011;11870;53.084;18.206;2023-05-07T04:22:43;1109.97;;;87.93;;
23394;SDS011;11870;53.084;18.206;2023-05-07T04:25:09;883.42;;;71.05;;
23394;SDS011;11870;53.084;18.206;2023-05-07T04:27:35;1134.80;;;84.07;;
23394;SDS011;11870;53.084;18.206;2023-05-07T04:30:02;568.97;;;48.05;;
23394;SDS011;11870;53.084;18.206;2023-05-07T04:32:29;1999.90;;;143.98;;
23394;SDS011;11870;53.084;18.206;2023-05-07T04:34:55;1999.90;;;184.73;;
23394;SDS011;11870;53.084;18.206;2023-05-07T04:37:22;1959.05;;;137.20;;
23394;SDS011;11870;53.084;18.206;2023-05-07T04:39:48;1188.05;;;87.75;;
23394;SDS011;11870;53.084;18.206;2023-05-07T04:42:15;1961.70;;;150.25;;
23394;SDS011;11870;53.084;18.206;2023-05-07T04:44:44;1999.90;;;285.20;;
23394;SDS011;11870;53.084;18.206;2023-05-07T04:47:11;519.30;;;56.65;;
23394;SDS011;11870;53.084;18.206;2023-05-07T04:49:37;1999.90;;;213.55;;
23394;SDS011;11870;53.084;18.206;2023-05-07T04:52:04;1646.43;;;142.05;;
23394;SDS011;11870;53.084;18.206;2023-05-07T04:54:30;1999.90;;;214.55;;
23394;SDS011;11870;53.084;18.206;2023-05-07T04:56:56;737.55;;;82.30;;
23394;SDS011;11870;53.084;18.206;2023-05-07T04:59:22;656.60;;;79.88;;
23394;SDS011;11870;53.084;18.206;2023-05-07T05:01:48;514.03;;;71.50;;
23394;SDS011;11870;53.084;18.206;2023-05-07T05:04:14;389.83;;;63.40;;
23394;SDS011;11870;53.084;18.206;2023-05-07T05:06:40;127.88;;;48.50;;
23394;SDS011;11870;53.084;18.206;2023-05-07T05:09:07;176.70;;;55.42;;
23394;SDS011;11870;53.084;18.206;2023-05-07T05:11:33;164.63;;;57.78;;
23394;SDS011;11870;53.084;18.206;2023-05-07T05:13:59;148.88;;;55.22;;
23394;SDS011;11870;53.084;18.206;2023-05-07T05:16:26;1616.05;;;208.93;;
23394;SDS011;11870;53.084;18.206;2023-05-07T05:18:52;316.95;;;62.55;;
23394;SDS011;11870;53.084;18.206;2023-05-07T05:21:19;301.73;;;63.50;;
23394;SDS011;11870;53.084;18.206;2023-05-07T05:23:45;190.02;;;56.30;;
23394;SDS011;11870;53.084;18.206;2023-05-07T05:26:11;136.00;;;57.47;;
23394;SDS011;11870;53.084;18.206;2023-05-07T05:28:37;223.10;;;63.25;;
23394;SDS011;11870;53.084;18.206;2023-05-07T05:31:04;335.20;;;75.35;;
23394;SDS011;11870;53.084;18.206;2023-05-07T05:33:30;125.35;;;59.88;;
23394;SDS011;11870;53.084;18.206;2023-05-07T05:35:56;121.70;;;59.33;;
23394;SDS011;11870;53.084;18.206;2023-05-07T05:38:22;125.00;;;59.80;;
23394;SDS011;11870;53.084;18.206;2023-05-07T05:40:48;108.82;;;55.50;;
23394;SDS011;11870;53.084;18.206;2023-05-07T05:43:14;87.72;;;50.10;;
23394;SDS011;11870;53.084;18.206;2023-05-07T05:45:40;74.22;;;41.28;;
23394;SDS011;11870;53.084;18.206;2023-05-07T05:48:06;58.88;;;36.10;;
23394;SDS011;11870;53.084;18.206;2023-05-07T05:50:32;52.70;;;32.58;;
23394;SDS011;11870;53.084;18.206;2023-05-07T05:52:58;30.48;;;22.33;;
23394;SDS011;11870;53.084;18.206;2023-05-07T05:55:24;27.33;;;18.80;;
23394;SDS011;11870;53.084;18.206;2023-05-07T05:57:50;21.35;;;15.05;;
23394;SDS011;11870;53.084;18.206;2023-05-07T06:00:16;21.88;;;15.13;;
23394;SDS011;11870;53.084;18.206;2023-05-07T06:02:42;19.70;;;12.82;;
23394;SDS011;11870;53.084;18.206;2023-05-07T06:05:08;19.75;;;13.40;;
23394;SDS011;11870;53.084;18.206;2023-05-07T06:07:34;18.80;;;12.50;;
23394;SDS011;11870;53.084;18.206;2023-05-07T06:10:01;17.52;;;10.88;;
23394;SDS011;11870;53.084;18.206;2023-05-07T06:12:27;15.57;;;10.27;;
23394;SDS011;11870;53.084;18.206;2023-05-07T06:14:53;12.10;;;9.35;;
23394;SDS011;11870;53.084;18.206;2023-05-07T06:17:19;13.02;;;8.52;;
23394;SDS011;11870;53.084;18.206;2023-05-07T06:19:45;12.93;;;8.82;;
23394;SDS011;11870;53.084;18.206;2023-05-07T06:22:11;10.95;;;8.65;;
23394;SDS011;11870;53.084;18.206;2023-05-07T06:24:37;10.63;;;7.93;;
23394;SDS011;11870;53.084;18.206;2023-05-07T06:27:03;11.70;;;8.18;;
23394;SDS011;11870;53.084;18.206;2023-05-07T06:29:29;9.85;;;7.55;;
23394;SDS011;11870;53.084;18.206;2023-05-07T06:32:05;11.05;;;7.78;;
23394;SDS011;11870;53.084;18.206;2023-05-07T06:34:32;10.38;;;7.00;;
23394;SDS011;11870;53.084;18.206;2023-05-07T06:36:58;12.48;;;7.47;;
23394;SDS011;11870;53.084;18.206;2023-05-07T06:39:24;12.85;;;7.72;;
23394;SDS011;11870;53.084;18.206;2023-05-07T06:41:50;17.17;;;8.55;;
23394;SDS011;11870;53.084;18.206;2023-05-07T06:44:16;10.52;;;7.18;;
23394;SDS011;11870;53.084;18.206;2023-05-07T06:46:42;9.48;;;6.00;;
23394;SDS011;11870;53.084;18.206;2023-05-07T06:49:08;7.80;;;6.15;;
23394;SDS011;11870;53.084;18.206;2023-05-07T06:51:33;10.05;;;5.90;;
23394;SDS011;11870;53.084;18.206;2023-05-07T06:54:00;10.57;;;6.03;;
23394;SDS011;11870;53.084;18.206;2023-05-07T06:56:25;8.40;;;5.93;;
23394;SDS011;11870;53.084;18.206;2023-05-07T06:58:51;6.40;;;4.85;;
23394;SDS011;11870;53.084;18.206;2023-05-07T07:01:17;8.23;;;5.13;;
23394;SDS011;11870;53.084;18.206;2023-05-07T07:03:43;8.75;;;5.55;;
23394;SDS011;11870;53.084;18.206;2023-05-07T07:06:09;6.93;;;5.45;;
23394;SDS011;11870;53.084;18.206;2023-05-07T07:08:35;6.20;;;5.30;;
23394;SDS011;11870;53.084;18.206;2023-05-07T07:11:01;5.57;;;4.80;;
23394;SDS011;11870;53.084;18.206;2023-05-07T07:13:27;6.30;;;5.45;;
23394;SDS011;11870;53.084;18.206;2023-05-07T07:15:52;6.35;;;4.85;;
23394;SDS011;11870;53.084;18.206;2023-05-07T07:18:19;8.90;;;5.10;;
23394;SDS011;11870;53.084;18.206;2023-05-07T07:20:45;5.90;;;4.80;;
23394;SDS011;11870;53.084;18.206;2023-05-07T07:23:11;7.60;;;5.07;;
23394;SDS011;11870;53.084;18.206;2023-05-07T07:25:37;8.63;;;5.47;;
23394;SDS011;11870;53.084;18.206;2023-05-07T07:28:04;5.88;;;4.57;;
23394;SDS011;11870;53.084;18.206;2023-05-07T07:30:31;9.60;;;4.70;;
23394;SDS011;11870;53.084;18.206;2023-05-07T07:32:57;7.20;;;4.65;;
23394;SDS011;11870;53.084;18.206;2023-05-07T07:35:28;5.22;;;4.20;;
23394;SDS011;11870;53.084;18.206;2023-05-07T07:37:55;5.53;;;4.25;;
23394;SDS011;11870;53.084;18.206;2023-05-07T07:40:21;8.45;;;4.45;;
23394;SDS011;11870;53.084;18.206;2023-05-07T07:42:48;6.50;;;4.50;;
23394;SDS011;11870;53.084;18.206;2023-05-07T07:45:14;5.13;;;3.70;;
23394;SDS011;11870;53.084;18.206;2023-05-07T07:47:40;6.82;;;4.20;;
23394;SDS011;11870;53.084;18.206;2023-05-07T07:50:06;10.18;;;4.30;;
23394;SDS011;11870;53.084;18.206;2023-05-07T07:52:33;6.57;;;4.50;;
23394;SDS011;11870;53.084;18.206;2023-05-07T07:54:59;7.43;;;4.57;;
23394;SDS011;11870;53.084;18.206;2023-05-07T07:57:25;7.95;;;4.38;;
23394;SDS011;11870;53.084;18.206;2023-05-07T07:59:50;5.63;;;4.47;;
23394;SDS011;11870;53.084;18.206;2023-05-07T08:02:17;6.50;;;4.28;;
23394;SDS011;11870;53.084;18.206;2023-05-07T08:04:43;5.65;;;4.38;;
23394;SDS011;11870;53.084;18.206;2023-05-07T08:07:09;6.32;;;4.47;;
23394;SDS011;11870;53.084;18.206;2023-05-07T08:09:36;6.68;;;4.82;;
23394;SDS011;11870;53.084;18.206;2023-05-07T08:12:03;5.30;;;4.20;;
23394;SDS011;11870;53.084;18.206;2023-05-07T08:14:29;6.60;;;4.22;;
23394;SDS011;11870;53.084;18.206;2023-05-07T08:16:55;5.80;;;4.22;;
23394;SDS011;11870;53.084;18.206;2023-05-07T08:19:21;5.90;;;4.22;;
23394;SDS011;11870;53.084;18.206;2023-05-07T08:21:48;6.93;;;4.40;;
23394;SDS011;11870;53.084;18.206;2023-05-07T08:24:14;4.68;;;4.10;;
23394;SDS011;11870;53.084;18.206;2023-05-07T08:26:40;5.03;;;4.45;;
23394;SDS011;11870;53.084;18.206;2023-05-07T08:29:06;7.72;;;4.40;;
23394;SDS011;11870;53.084;18.206;2023-05-07T08:31:33;7.75;;;4.18;;
23394;SDS011;11870;53.084;18.206;2023-05-07T08:33:58;5.38;;;4.15;;
23394;SDS011;11870;53.084;18.206;2023-05-07T08:36:25;5.55;;;3.78;;
23394;SDS011;11870;53.084;18.206;2023-05-07T08:38:51;5.18;;;4.35;;
23394;SDS011;11870;53.084;18.206;2023-05-07T08:41:18;4.72;;;3.88;;
23394;SDS011;11870;53.084;18.206;2023-05-07T08:43:47;8.02;;;4.20;;
23394;SDS011;11870;53.084;18.206;2023-05-07T08:46:21;6.35;;;4.30;;
23394;SDS011;11870;53.084;18.206;2023-05-07T08:48:48;5.32;;;4.20;;
23394;SDS011;11870;53.084;18.206;2023-05-07T08:51:16;5.55;;;3.85;;
23394;SDS011;11870;53.084;18.206;2023-05-07T08:53:46;5.07;;;3.83;;
23394;SDS011;11870;53.084;18.206;2023-05-07T08:56:16;4.85;;;4.05;;
23394;SDS011;11870;53.084;18.206;2023-05-07T08:58:43;4.45;;;4.05;;
23394;SDS011;11870;53.084;18.206;2023-05-07T09:01:10;4.72;;;4.28;;
23394;SDS011;11870;53.084;18.206;2023-05-07T09:03:39;4.60;;;4.10;;
23394;SDS011;11870;53.084;18.206;2023-05-07T09:06:06;4.57;;;4.05;;
23394;SDS011;11870;53.084;18.206;2023-05-07T09:08:32;6.93;;;4.00;;
23394;SDS011;11870;53.084;18.206;2023-05-07T09:10:59;4.50;;;4.05;;
23394;SDS011;11870;53.084;18.206;2023-05-07T09:13:25;4.57;;;3.90;;
23394;SDS011;11870;53.084;18.206;2023-05-07T09:15:52;4.78;;;4.25;;
23394;SDS011;11870;53.084;18.206;2023-05-07T09:18:18;5.10;;;4.10;;
23394;SDS011;11870;53.084;18.206;2023-05-07T09:20:44;3.97;;;3.58;;
23394;SDS011;11870;53.084;18.206;2023-05-07T09:23:10;4.10;;;3.70;;
23394;SDS011;11870;53.084;18.206;2023-05-07T09:25:36;5.43;;;4.03;;
23394;SDS011;11870;53.084;18.206;2023-05-07T09:28:03;4.22;;;3.78;;
23394;SDS011;11870;53.084;18.206;2023-05-07T09:30:33;6.22;;;4.78;;
23394;SDS011;11870;53.084;18.206;2023-05-07T09:33:01;4.50;;;3.92;;
23394;SDS011;11870;53.084;18.206;2023-05-07T09:35:30;4.80;;;4.30;;
23394;SDS011;11870;53.084;18.206;2023-05-07T09:37:57;5.40;;;4.05;;
23394;SDS011;11870;53.084;18.206;2023-05-07T09:40:25;5.22;;;3.78;;
23394;SDS011;11870;53.084;18.206;2023-05-07T09:42:52;5.20;;;3.80;;
23394;SDS011;11870;53.084;18.206;2023-05-07T09:45:25;6.32;;;4.10;;
23394;SDS011;11870;53.084;18.206;2023-05-07T09:47:54;5.38;;;3.35;;
23394;SDS011;11870;53.084;18.206;2023-05-07T09:50:22;4.22;;;3.60;;
23394;SDS011;11870;53.084;18.206;2023-05-07T09:52:56;4.78;;;3.60;;
23394;SDS011;11870;53.084;18.206;2023-05-07T09:55:23;6.28;;;3.78;;
23394;SDS011;11870;53.084;18.206;2023-05-07T09:57:50;7.75;;;3.50;;
23394;SDS011;11870;53.084;18.206;2023-05-07T10:00:21;5.45;;;3.40;;
23394;SDS011;11870;53.084;18.206;2023-05-07T10:02:48;5.38;;;3.33;;
23394;SDS011;11870;53.084;18.206;2023-05-07T10:05:17;3.50;;;2.90;;
23394;SDS011;11870;53.084;18.206;2023-05-07T10:07:45;5.88;;;3.05;;
23394;SDS011;11870;53.084;18.206;2023-05-07T10:10:12;4.50;;;3.50;;
23394;SDS011;11870;53.084;18.206;2023-05-07T10:12:39;4.32;;;3.20;;
23394;SDS011;11870;53.084;18.206;2023-05-07T10:15:06;5.50;;;3.00;;
23394;SDS011;11870;53.084;18.206;2023-05-07T10:17:36;7.13;;;2.97;;
23394;SDS011;11870;53.084;18.206;2023-05-07T10:20:04;6.30;;;2.95;;
23394;SDS011;11870;53.084;18.206;2023-05-07T10:22:43;5.63;;;2.75;;
23394;SDS011;11870;53.084;18.206;2023-05-07T10:25:14;5.97;;;3.08;;
23394;SDS011;11870;53.084;18.206;2023-05-07T10:27:43;5.78;;;2.90;;
23394;SDS011;11870;53.084;18.206;2023-05-07T10:32:53;5.05;;;2.97;;
23394;SDS011;11870;53.084;18.206;2023-05-07T10:35:26;4.60;;;2.78;;
23394;SDS011;11870;53.084;18.206;2023-05-07T10:37:56;6.45;;;3.10;;
23394;SDS011;11870;53.084;18.206;2023-05-07T10:40:22;3.88;;;2.72;;
23394;SDS011;11870;53.084;18.206;2023-05-07T10:45:22;5.72;;;2.95;;
23394;SDS011;11870;53.084;18.206;2023-05-07T10:50:43;4.28;;;3.05;;
23394;SDS011;11870;53.084;18.206;2023-05-07T10:55:47;4.97;;;2.95;;
23394;SDS011;11870;53.084;18.206;2023-05-07T10:58:22;8.40;;;3.15;;
23394;SDS011;11870;53.084;18.206;2023-05-07T11:01:00;4.03;;;2.85;;
23394;SDS011;11870;53.084;18.206;2023-05-07T11:03:27;5.53;;;2.80;;
23394;SDS011;11870;53.084;18.206;2023-05-07T11:06:13;4.40;;;2.90;;
23394;SDS011;11870;53.084;18.206;2023-05-07T11:09:14;5.30;;;2.47;;
23394;SDS011;11870;53.084;18.206;2023-05-07T11:11:45;4.30;;;2.90;;
23394;SDS011;11870;53.084;18.206;2023-05-07T11:17:06;3.53;;;2.47;;
23394;SDS011;11870;53.084;18.206;2023-05-07T11:19:51;3.75;;;2.72;;
23394;SDS011;11870;53.084;18.206;2023-05-07T11:25:01;5.07;;;2.90;;
23394;SDS011;11870;53.084;18.206;2023-05-07T11:27:29;5.13;;;3.03;;
23394;SDS011;11870;53.084;18.206;2023-05-07T11:29:55;4.30;;;2.92;;
23394;SDS011;11870;53.084;18.206;2023-05-07T11:32:22;5.07;;;3.10;;
23394;SDS011;11870;53.084;18.206;2023-05-07T11:34:52;5.38;;;3.33;;
23394;SDS011;11870;53.084;18.206;2023-05-07T11:37:19;5.18;;;3.00;;
23394;SDS011;11870;53.084;18.206;2023-05-07T11:39:46;5.28;;;3.00;;
23394;SDS011;11870;53.084;18.206;2023-05-07T11:42:28;4.20;;;2.97;;
23394;SDS011;11870;53.084;18.206;2023-05-07T11:44:54;4.63;;;3.05;;
23394;SDS011;11870;53.084;18.206;2023-05-07T11:47:21;4.10;;;2.88;;
23394;SDS011;11870;53.084;18.206;2023-05-07T11:49:50;7.13;;;2.70;;
23394;SDS011;11870;53.084;18.206;2023-05-07T11:52:19;4.82;;;2.50;;
23394;SDS011;11870;53.084;18.206;2023-05-07T11:54:53;5.40;;;3.20;;
23394;SDS011;11870;53.084;18.206;2023-05-07T11:57:24;4.45;;;3.05;;
23394;SDS011;11870;53.084;18.206;2023-05-07T11:59:53;4.63;;;3.03;;
23394;SDS011;11870;53.084;18.206;2023-05-07T12:02:20;4.93;;;2.65;;
23394;SDS011;11870;53.084;18.206;2023-05-07T12:04:46;7.18;;;3.28;;
23394;SDS011;11870;53.084;18.206;2023-05-07T12:07:13;4.63;;;2.80;;
23394;SDS011;11870;53.084;18.206;2023-05-07T12:09:40;7.22;;;2.78;;
23394;SDS011;11870;53.084;18.206;2023-05-07T12:12:06;4.75;;;2.60;;
23394;SDS011;11870;53.084;18.206;2023-05-07T12:14:33;5.03;;;2.70;;
23394;SDS011;11870;53.084;18.206;2023-05-07T12:17:10;5.70;;;2.50;;
23394;SDS011;11870;53.084;18.206;2023-05-07T12:19:39;3.40;;;2.60;;
23394;SDS011;11870;53.084;18.206;2023-05-07T12:22:09;5.45;;;2.75;;
23394;SDS011;11870;53.084;18.206;2023-05-07T12:24:49;2.90;;;2.30;;
23394;SDS011;11870;53.084;18.206;2023-05-07T12:27:21;4.40;;;2.38;;
23394;SDS011;11870;53.084;18.206;2023-05-07T12:29:49;4.88;;;2.40;;
23394;SDS011;11870;53.084;18.206;2023-05-07T12:32:16;3.30;;;2.40;;
23394;SDS011;11870;53.084;18.206;2023-05-07T12:34:43;6.03;;;2.40;;
23394;SDS011;11870;53.084;18.206;2023-05-07T12:37:10;4.93;;;2.45;;
23394;SDS011;11870;53.084;18.206;2023-05-07T12:39:38;3.58;;;2.30;;
23394;SDS011;11870;53.084;18.206;2023-05-07T12:42:09;2.85;;;2.20;;
23394;SDS011;11870;53.084;18.206;2023-05-07T12:44:41;6.53;;;2.67;;
23394;SDS011;11870;53.084;18.206;2023-05-07T12:47:10;6.38;;;2.60;;
23394;SDS011;11870;53.084;18.206;2023-05-07T12:49:36;3.50;;;2.33;;
23394;SDS011;11870;53.084;18.206;2023-05-07T12:52:04;4.35;;;2.30;;
23394;SDS011;11870;53.084;18.206;2023-05-07T12:54:31;5.57;;;2.65;;
23394;SDS011;11870;53.084;18.206;2023-05-07T12:57:01;3.30;;;2.40;;
23394;SDS011;11870;53.084;18.206;2023-05-07T12:59:38;5.18;;;3.38;;
23394;SDS011;11870;53.084;18.206;2023-05-07T13:02:08;4.00;;;2.33;;
23394;SDS011;11870;53.084;18.206;2023-05-07T13:04:34;5.32;;;2.83;;
23394;SDS011;11870;53.084;18.206;2023-05-07T13:07:01;3.72;;;2.42;;
23394;SDS011;11870;53.084;18.206;2023-05-07T13:09:27;3.13;;;2.10;;
23394;SDS011;11870;53.084;18.206;2023-05-07T13:11:57;3.28;;;2.30;;
23394;SDS011;11870;53.084;18.206;2023-05-07T13:14:26;4.72;;;2.55;;
23394;SDS011;11870;53.084;18.206;2023-05-07T13:16:52;3.80;;;2.30;;
23394;SDS011;11870;53.084;18.206;2023-05-07T13:19:18;5.40;;;2.60;;
23394;SDS011;11870;53.084;18.206;2023-05-07T13:21:44;3.78;;;2.33;;
23394;SDS011;11870;53.084;18.206;2023-05-07T13:24:10;3.78;;;2.65;;
23394;SDS011;11870;53.084;18.206;2023-05-07T13:26:36;4.20;;;2.63;;
23394;SDS011;11870;53.084;18.206;2023-05-07T13:29:01;4.35;;;2.60;;
23394;SDS011;11870;53.084;18.206;2023-05-07T13:31:28;4.97;;;2.40;;
23394;SDS011;11870;53.084;18.206;2023-05-07T13:33:53;3.42;;;2.22;;
23394;SDS011;11870;53.084;18.206;2023-05-07T13:36:21;4.45;;;2.10;;
23394;SDS011;11870;53.084;18.206;2023-05-07T13:38:47;4.03;;;2.20;;
23394;SDS011;11870;53.084;18.206;2023-05-07T13:41:13;3.03;;;2.50;;
23394;SDS011;11870;53.084;18.206;2023-05-07T13:43:39;3.10;;;2.13;;
23394;SDS011;11870;53.084;18.206;2023-05-07T13:46:06;5.72;;;2.85;;
23394;SDS011;11870;53.084;18.206;2023-05-07T13:48:31;3.45;;;2.40;;
23394;SDS011;11870;53.084;18.206;2023-05-07T13:50:58;3.00;;;2.20;;
23394;SDS011;11870;53.084;18.206;2023-05-07T13:53:23;3.33;;;2.53;;
23394;SDS011;11870;53.084;18.206;2023-05-07T13:55:50;3.78;;;2.90;;
23394;SDS011;11870;53.084;18.206;2023-05-07T13:58:15;5.63;;;2.80;;
23394;SDS011;11870;53.084;18.206;2023-05-07T14:00:41;3.45;;;2.30;;
23394;SDS011;11870;53.084;18.206;2023-05-07T14:03:07;6.53;;;3.22;;
23394;SDS011;11870;53.084;18.206;2023-05-07T14:05:33;5.18;;;2.72;;
23394;SDS011;11870;53.084;18.206;2023-05-07T14:08:00;4.05;;;2.83;;
23394;SDS011;11870;53.084;18.206;2023-05-07T14:10:26;3.60;;;2.20;;
23394;SDS011;11870;53.084;18.206;2023-05-07T14:12:52;3.83;;;2.25;;
23394;SDS011;11870;53.084;18.206;2023-05-07T14:15:18;3.67;;;2.22;;
23394;SDS011;11870;53.084;18.206;2023-05-07T14:17:44;5.20;;;2.40;;
23394;SDS011;11870;53.084;18.206;2023-05-07T14:20:11;3.60;;;2.40;;
23394;SDS011;11870;53.084;18.206;2023-05-07T14:22:37;3.08;;;2.22;;
23394;SDS011;11870;53.084;18.206;2023-05-07T14:25:03;5.55;;;2.65;;
23394;SDS011;11870;53.084;18.206;2023-05-07T14:27:30;3.13;;;2.30;;
23394;SDS011;11870;53.084;18.206;2023-05-07T14:29:56;4.22;;;2.33;;
23394;SDS011;11870;53.084;18.206;2023-05-07T14:32:22;3.25;;;2.40;;
23394;SDS011;11870;53.084;18.206;2023-05-07T14:34:48;3.95;;;2.10;;